메인 페이지
METAR-TAF:

METAR-TAF

공항 :

타이베이 쑹산 공항

타이베이, 타이완

위도: 25-04N, 경도: 121-33E, 고도: 6m

현재 날씨관측

예보는 21분 전, 04:00시(UTC)에 발표되었습니다.
4kt
온도 16°C
습도 94%
기압 1024 hPa
시정: 4000m
고도 400ft 상공 구름 보통
고도 1000ft 상공 구름 많음
고도 3500ft 상공 구름 많음
비, 박무

METAR: RCSS 060400Z 09004KT 4000 RA BR SCT004 BKN010 BKN035 16/15 Q1024 NOSIG RMK A3025 RA AMT 4.0MM

시각: 12:21 (04:21 UTC)

예보

예보는 5 시간 21분 전, 23:00시(UTC)에 발표되었습니다.
예보 대상 시간: 06일 00시부터 06일 24시까지 (UTC)
5kt
시정: 7000m
고도 1200ft 상공 구름 조금
고도 2800ft 상공 구름 많음
약한비
일시적
06일 01시부터 06일 08시까지 (UTC)
10kt
시정: 4000m
고도 700ft 상공 구름 조금
고도 1500ft 상공 구름 많음
일시적
06일 08시부터 06일 14시까지 (UTC)
10kt
시정: 5000m
고도 1000ft 상공 구름 조금
고도 2000ft 상공 구름 많음
일시적
06일 17시부터 06일 24시까지 (UTC)
남남서5kt
시정: 5000m
고도 600ft 상공 구름 조금
고도 1400ft 상공 구름 많음

TAF: RCSS 052300Z 0600/0624 09005KT 7000 -RA FEW012 BKN028 TEMPO 0601/0608 08010KT 4000 RA FEW007 BKN015 TEMPO 0608/0614 10010KT 5000 RA FEW010 BKN020 TEMPO 0617/0624 21005KT 5000 RA FEW006 BKN014

4,000개 이상의 공항 관측 자료 및 예보 (METAR 및 TAF 보고).

지도상에서 검색 가능한 기상관측소가 노란 점과 빨간 점으로 표시되어 있습니다.

기상관측소 명을 보려면 표시 위로 마우스를 이동하세요.

날씨 관측과 예보를 보려면 클릭하세요.

지도 변경 : 확대하려면 엑스 표시가 있는 녹색 버튼, 축소하려면 빼기 표시가 있는 녹색 버튼, 다음 페이지의 지도를 보려면 녹색 화살표를 클릭하세요.


METAR-TAF: